Aviation Digital Data Service (ADDS)

Output produced by METARs form (1950 UTC 28 April 2017)
found at http://aviationweather.gov/adds/metars/
 
KRME 281726Z 2818/2918 26008KT P6SM FEW250 
     FM282300 VRB03KT P6SM BKN200 
     TEMPO 2908/2911 -SHRA BKN060 OVC100 
     FM291500 28008KT P6SM BKN045